Time;durP1;ratioP1;P1;durP2;ratioP2;P2;SDS_P1;SDS_P2;PMS_P1;PMS_P2;Temp;Humidity;BMP_temperature;BMP_pressure;BME280_temperature;BME280_humidity;BME280_pressure;Samples;Min_cycle;Max_cycle;Signal;HPM_P1;HPM_P2
2022/05/06 00:00:11;;;;;;;17.37;14.47;;;18.00;74.30;;;-142.21;100.00;112049.66;5045569;28;20511;-78
2022/05/06 00:02:39;;;;;;;16.13;13.40;;;18.00;74.40;;;-142.21;100.00;112049.66;5049405;28;20498;-77
2022/05/06 00:05:08;;;;;;;16.10;12.87;;;18.00;74.00;;;-142.21;100.00;112049.66;5048875;28;20497;-78
2022/05/06 00:07:36;;;;;;;16.90;13.63;;;17.90;74.00;;;-142.21;100.00;112049.66;5054056;28;20484;-77
2022/05/06 00:10:06;;;;;;;17.97;14.47;;;17.90;74.10;;;-142.21;100.00;112049.66;5054147;28;20488;-77
2022/05/06 00:12:34;;;;;;;17.50;13.60;;;18.00;74.40;;;-142.21;100.00;112049.66;5053105;28;20932;-77
2022/05/06 00:15:02;;;;;;;18.10;14.80;;;18.00;74.00;;;-142.21;100.00;112049.66;5054020;28;20520;-78
2022/05/06 00:17:30;;;;;;;17.63;14.83;;;18.00;74.20;;;-142.21;100.00;112049.66;5054687;28;20539;-78
2022/05/06 00:19:57;;;;;;;15.53;13.60;;;18.00;73.90;;;-142.21;100.00;112049.66;5053797;28;20476;-78
2022/05/06 00:22:25;;;;;;;19.43;14.13;;;18.00;73.90;;;-142.21;100.00;112049.66;5055433;28;20459;-78
2022/05/06 00:24:53;;;;;;;18.63;13.60;;;18.00;73.60;;;-142.21;100.00;112049.66;5054542;28;20444;-77
2022/05/06 00:27:20;;;;;;;17.03;14.13;;;18.00;73.60;;;-142.21;100.00;112049.66;5054300;28;20515;-77
2022/05/06 00:29:47;;;;;;;15.27;13.23;;;18.00;73.40;;;-142.21;100.00;112049.66;5053827;28;21075;-78
2022/05/06 00:32:14;;;;;;;19.97;14.10;;;18.00;73.40;;;-142.21;100.00;112049.66;5053429;28;21022;-78
2022/05/06 00:34:45;;;;;;;18.60;14.30;;;18.00;73.50;;;-142.21;100.00;112049.66;5054263;28;20960;-77
2022/05/06 00:37:12;;;;;;;15.83;14.03;;;18.00;73.20;;;-142.21;100.00;112049.66;5053172;28;20446;-78
2022/05/06 00:39:40;;;;;;;18.00;14.60;;;18.00;73.10;;;-142.21;100.00;112049.66;5054295;28;20472;-77
2022/05/06 00:42:09;;;;;;;18.60;14.47;;;18.00;73.10;;;-142.21;100.00;112049.66;5053414;28;20539;-78
2022/05/06 00:44:36;;;;;;;20.20;14.57;;;18.00;73.20;;;-142.21;100.00;112049.66;5054125;28;20455;-78
2022/05/06 00:47:06;;;;;;;18.73;13.87;;;17.90;73.60;;;-142.21;100.00;112049.66;5053381;28;20449;-78
2022/05/06 00:49:34;;;;;;;18.17;13.07;;;17.90;73.40;;;-142.21;100.00;112049.66;5053540;28;20566;-78
2022/05/06 00:52:03;;;;;;;17.63;13.93;;;17.90;73.40;;;-142.21;100.00;112049.66;5053024;28;20448;-78
2022/05/06 00:54:32;;;;;;;18.97;14.53;;;17.90;73.30;;;-142.21;100.00;112049.66;5054163;28;20452;-78
2022/05/06 00:57:00;;;;;;;19.07;14.57;;;17.90;73.70;;;-142.21;100.00;112049.66;5053192;28;20527;-77
2022/05/06 00:59:29;;;;;;;17.57;14.20;;;17.80;73.90;;;-142.21;100.00;112049.66;5054158;28;20536;-78
2022/05/06 01:01:58;;;;;;;22.33;14.80;;;17.80;73.90;;;-142.21;100.00;112049.66;5053125;28;20451;-79
2022/05/06 01:04:26;;;;;;;17.20;15.13;;;17.80;74.30;;;-142.21;100.00;112049.66;5053679;28;20527;-78
2022/05/06 01:06:53;;;;;;;21.63;15.77;;;17.80;73.80;;;-142.21;100.00;112049.66;5052761;28;20448;-78
2022/05/06 01:09:20;;;;;;;20.00;14.67;;;17.80;74.50;;;-142.21;100.00;112049.66;5053852;28;20952;-78
2022/05/06 01:11:50;;;;;;;19.73;14.67;;;17.70;74.60;;;-142.21;100.00;112049.66;5053184;28;20480;-78
2022/05/06 01:14:35;;;;;;;15.87;13.50;;;17.70;74.80;;;-142.21;100.00;112049.66;5053120;28;20897;-78
2022/05/06 01:17:05;;;;;;;17.50;13.83;;;17.70;74.80;;;-142.21;100.00;112049.66;5052408;28;20436;-79
2022/05/06 01:19:32;;;;;;;20.47;15.33;;;17.70;74.40;;;-142.21;100.00;112049.66;5053083;28;20471;-79
2022/05/06 01:22:01;;;;;;;18.60;15.73;;;17.70;74.60;;;-142.21;100.00;112049.66;5053142;28;20440;-78
2022/05/06 01:24:29;;;;;;;19.37;15.27;;;17.70;74.90;;;-142.21;100.00;112049.66;5050339;28;20449;-78
2022/05/06 01:27:04;;;;;;;18.23;14.93;;;17.60;74.80;;;-142.21;100.00;112049.66;5052788;28;20475;-78
2022/05/06 01:29:32;;;;;;;20.60;15.63;;;17.60;75.30;;;-142.21;100.00;112049.66;5053499;28;20440;-78
2022/05/06 01:32:02;;;;;;;20.20;14.23;;;17.60;75.00;;;-142.21;100.00;112049.66;5052599;28;20464;-78
2022/05/06 01:34:32;;;;;;;19.23;14.90;;;17.60;75.10;;;-142.21;100.00;112049.66;5052927;28;20455;-78
2022/05/06 01:37:05;;;;;;;17.93;14.13;;;17.60;75.70;;;-142.21;100.00;112049.66;5053027;28;20472;-78
2022/05/06 01:39:36;;;;;;;20.43;14.63;;;17.60;74.80;;;-142.21;100.00;112049.66;5052857;28;20448;-77
2022/05/06 01:42:06;;;;;;;19.17;14.63;;;17.60;75.40;;;-142.21;100.00;112049.66;5052511;28;20433;-78
2022/05/06 01:44:40;;;;;;;18.53;14.77;;;17.50;75.70;;;-142.21;100.00;112049.66;5053105;28;20450;-78
2022/05/06 01:47:15;;;;;;;20.47;16.33;;;17.50;75.70;;;-142.21;100.00;112049.66;5055830;28;20547;-77
2022/05/06 01:49:46;;;;;;;19.53;15.53;;;17.50;75.30;;;-142.21;100.00;112049.66;5052983;28;20511;-78
2022/05/06 01:52:18;;;;;;;17.50;13.77;;;17.60;75.40;;;-142.21;100.00;112049.66;5052657;28;20448;-77
2022/05/06 01:54:48;;;;;;;17.80;14.13;;;17.60;75.60;;;-142.21;100.00;112049.66;5053131;28;20776;-77
2022/05/06 01:57:15;;;;;;;19.43;14.40;;;17.60;75.40;;;-142.21;100.00;112049.66;5052520;28;20936;-78
2022/05/06 01:59:43;;;;;;;20.23;15.37;;;17.70;75.20;;;-142.21;100.00;112049.66;5053091;28;20524;-78
2022/05/06 02:02:10;;;;;;;19.83;16.27;;;17.60;75.40;;;-142.21;100.00;112049.66;5052116;28;20483;-77
2022/05/06 02:07:23;;;;;;;21.43;15.30;;;17.60;76.20;;;-142.21;100.00;112049.66;5043190;28;20423;-78
2022/05/06 02:09:50;;;;;;;20.10;14.53;;;17.60;75.30;;;-142.21;100.00;112049.66;5052515;28;20484;-78
2022/05/06 02:12:19;;;;;;;20.00;15.30;;;17.60;75.30;;;-142.21;100.00;112049.66;5043424;28;20853;-77
2022/05/06 02:14:46;;;;;;;19.70;15.37;;;17.60;75.20;;;-142.21;100.00;112049.66;5032671;28;20844;-76
2022/05/06 02:17:13;;;;;;;20.97;15.23;;;17.60;75.10;;;-142.21;100.00;112049.66;5031464;28;20457;-78
2022/05/06 02:19:42;;;;;;;19.17;15.17;;;17.60;75.20;;;-142.21;100.00;112049.66;5046977;28;20480;-78
2022/05/06 02:22:09;;;;;;;17.97;14.50;;;17.60;75.30;;;-142.21;100.00;112049.66;5052156;28;20978;-79
2022/05/06 02:24:37;;;;;;;20.20;14.53;;;17.50;75.30;;;-142.21;100.00;112049.66;5043283;28;20531;-77
2022/05/06 02:27:05;;;;;;;18.87;14.87;;;17.50;75.80;;;-142.21;100.00;112049.66;5037742;28;20450;-78
2022/05/06 02:29:33;;;;;;;19.47;15.27;;;17.50;76.20;;;-142.21;100.00;112049.66;5056762;28;20558;-78
2022/05/06 02:34:44;;;;;;;18.37;15.27;;;17.40;76.00;;;-142.21;100.00;112049.66;5036281;28;20420;-79
2022/05/06 02:37:12;;;;;;;19.70;16.10;;;17.30;76.30;;;-142.21;100.00;112049.66;5051317;28;20480;-78
2022/05/06 02:39:40;;;;;;;16.97;14.20;;;17.30;76.40;;;-142.21;100.00;112049.66;5055760;28;20449;-79
2022/05/06 02:42:09;;;;;;;19.63;14.80;;;17.30;76.10;;;-142.21;100.00;112049.66;5051577;28;20543;-78
2022/05/06 02:44:39;;;;;;;19.03;14.67;;;17.50;75.50;;;-142.21;100.00;112049.66;5052197;28;20452;-78
2022/05/06 02:47:06;;;;;;;19.73;15.07;;;17.60;75.30;;;-142.21;100.00;112049.66;5052010;28;20536;-77
2022/05/06 02:49:35;;;;;;;20.93;14.93;;;17.60;75.40;;;-142.21;100.00;112049.66;5048234;28;20952;-78
2022/05/06 02:52:03;;;;;;;18.67;15.70;;;17.50;76.10;;;-142.21;100.00;112049.66;5051591;28;20559;-78
2022/05/06 02:54:31;;;;;;;17.97;14.33;;;17.40;76.30;;;-142.21;100.00;112049.66;5052736;28;21007;-78
2022/05/06 02:57:00;;;;;;;22.27;14.83;;;17.40;75.80;;;-142.21;100.00;112049.66;5051791;28;20506;-78
2022/05/06 02:59:31;;;;;;;17.63;14.20;;;17.40;75.60;;;-142.21;100.00;112049.66;5052038;28;20457;-78
2022/05/06 03:01:58;;;;;;;18.20;14.37;;;17.50;75.70;;;-142.21;100.00;112049.66;5051360;28;20432;-78
2022/05/06 03:04:25;;;;;;;18.63;14.47;;;17.40;76.10;;;-142.21;100.00;112049.66;5051209;28;20441;-78
2022/05/06 03:06:52;;;;;;;18.47;15.10;;;17.40;76.50;;;-142.21;100.00;112049.66;5052092;28;20452;-77
2022/05/06 03:09:19;;;;;;;18.53;14.77;;;17.30;76.60;;;-142.21;100.00;112049.66;5051321;28;20539;-78
2022/05/06 03:11:47;;;;;;;21.10;15.50;;;17.30;76.20;;;-142.21;100.00;112049.66;5051499;28;21031;-78
2022/05/06 03:14:15;;;;;;;20.90;14.90;;;17.40;76.10;;;-142.21;100.00;112049.66;5051014;28;20484;-77
2022/05/06 03:16:43;;;;;;;19.57;15.37;;;17.40;75.90;;;-142.21;100.00;112049.66;5050491;28;20448;-77
2022/05/06 03:19:10;;;;;;;17.90;13.67;;;17.30;76.80;;;-142.21;100.00;112049.66;5051121;28;20992;-78
2022/05/06 03:21:37;;;;;;;19.23;14.50;;;17.30;75.70;;;-142.21;100.00;112049.66;5051931;28;20448;-78
2022/05/06 03:24:05;;;;;;;18.97;14.80;;;17.40;75.50;;;-142.21;100.00;112049.66;5051051;28;20539;-78
2022/05/06 03:26:32;;;;;;;16.70;14.50;;;17.40;75.20;;;-142.21;100.00;112049.66;5051724;28;20535;-78
2022/05/06 03:28:59;;;;;;;19.33;16.33;;;17.50;75.20;;;-142.21;100.00;112049.66;5051944;28;20858;-78
2022/05/06 03:31:28;;;;;;;20.47;15.37;;;17.40;75.00;;;-142.21;100.00;112049.66;5054650;28;20498;-78
2022/05/06 03:33:56;;;;;;;20.23;16.07;;;17.40;75.50;;;-142.21;100.00;112049.66;5047234;28;20448;-78
2022/05/06 03:36:23;;;;;;;19.23;15.57;;;17.30;75.50;;;-142.21;100.00;112049.66;5055004;28;20534;-77
2022/05/06 03:38:50;;;;;;;20.77;15.83;;;17.40;75.30;;;-142.21;100.00;112049.66;5053708;28;20444;-78
2022/05/06 03:41:17;;;;;;;20.90;15.73;;;17.40;75.20;;;-142.21;100.00;112049.66;5037342;28;20528;-78
2022/05/06 03:43:44;;;;;;;18.00;14.80;;;17.30;75.40;;;-142.21;100.00;112049.66;5055161;28;20555;-78
2022/05/06 03:46:12;;;;;;;18.53;15.27;;;17.30;75.70;;;-142.21;100.00;112049.66;5052980;28;20443;-77
2022/05/06 03:48:40;;;;;;;18.40;15.37;;;17.20;76.20;;;-142.21;100.00;112049.66;5055259;28;20523;-78
2022/05/06 03:51:24;;;;;;;22.93;15.37;;;17.20;76.10;;;-142.21;100.00;112049.66;5054684;28;20571;-78
2022/05/06 03:53:52;;;;;;;20.60;14.93;;;17.30;75.70;;;-142.21;100.00;112049.66;5054715;28;20533;-77
2022/05/06 03:56:22;;;;;;;20.23;15.53;;;17.30;76.60;;;-142.21;100.00;112049.66;5054320;28;20440;-77
2022/05/06 03:58:50;;;;;;;18.17;14.77;;;17.10;75.80;;;-142.21;100.00;112049.66;5054754;28;20455;-79
2022/05/06 04:01:19;;;;;;;20.60;15.37;;;17.10;76.10;;;-142.21;100.00;112049.66;5054378;28;20472;-78
2022/05/06 04:03:48;;;;;;;18.90;14.57;;;17.20;75.60;;;-142.21;100.00;112049.66;5054749;28;20449;-78
2022/05/06 04:06:15;;;;;;;19.47;15.30;;;17.30;75.40;;;-142.21;100.00;112049.66;5053968;28;20454;-78
2022/05/06 04:08:43;;;;;;;21.70;14.67;;;17.30;75.40;;;-142.21;100.00;112049.66;5054860;28;20842;-78
2022/05/06 04:11:11;;;;;;;27.97;14.73;;;17.30;75.30;;;-142.21;100.00;112049.66;5054332;28;20484;-77
2022/05/06 04:13:38;;;;;;;17.80;14.40;;;17.20;75.70;;;-142.21;100.00;112049.66;5054193;28;20879;-78
2022/05/06 04:16:07;;;;;;;22.03;15.30;;;17.10;75.70;;;-142.21;100.00;112049.66;5054633;28;20929;-78
2022/05/06 04:18:35;;;;;;;20.37;15.93;;;17.00;76.30;;;-142.21;100.00;112049.66;5054792;28;20816;-78
2022/05/06 04:23:48;;;;;;;17.20;13.47;;;17.00;77.20;;;-142.21;100.00;112049.66;5049973;28;20947;-78
2022/05/06 04:26:15;;;;;;;17.83;13.23;;;16.90;76.80;;;-142.21;100.00;112049.66;5053864;28;20484;-78
2022/05/06 04:28:43;;;;;;;15.70;13.73;;;16.90;77.50;;;-142.21;100.00;112049.66;5039962;28;20536;-78
2022/05/06 04:31:11;;;;;;;23.83;14.70;;;16.90;77.00;;;-142.21;100.00;112049.66;5054070;28;20871;-78
2022/05/06 04:33:39;;;;;;;17.97;13.80;;;16.90;76.90;;;-142.21;100.00;112049.66;5042231;28;20451;-78
2022/05/06 04:36:09;;;;;;;17.00;13.30;;;16.90;76.90;;;-142.21;100.00;112049.66;5034735;28;20925;-78
2022/05/06 04:38:37;;;;;;;15.70;13.03;;;16.80;76.90;;;-142.21;100.00;112049.66;5036719;28;20460;-77
2022/05/06 04:41:04;;;;;;;16.93;13.13;;;16.80;76.80;;;-142.21;100.00;112049.66;5053771;28;20475;-77
2022/05/06 04:43:32;;;;;;;17.30;13.40;;;16.80;76.80;;;-142.21;100.00;112049.66;5053236;28;20452;-78
2022/05/06 04:45:59;;;;;;;15.67;13.23;;;16.70;77.10;;;-142.21;100.00;112049.66;5054224;28;20448;-78
2022/05/06 04:48:26;;;;;;;15.70;13.50;;;16.70;77.10;;;-142.21;100.00;112049.66;5053611;28;20578;-77
2022/05/06 04:50:53;;;;;;;15.90;12.77;;;16.60;77.30;;;-142.21;100.00;112049.66;5054175;28;20490;-77
2022/05/06 04:53:22;;;;;;;18.77;13.20;;;16.70;77.50;;;-142.21;100.00;112049.66;5053211;28;20474;-77
2022/05/06 04:55:50;;;;;;;18.27;14.13;;;16.70;77.40;;;-142.21;100.00;112049.66;5034032;28;20537;-77
2022/05/06 04:58:19;;;;;;;15.83;12.97;;;16.70;77.40;;;-142.21;100.00;112049.66;5050337;28;20464;-78
2022/05/06 05:00:47;;;;;;;15.53;13.83;;;16.70;77.50;;;-142.21;100.00;112049.66;5053955;28;20444;-78
2022/05/06 05:03:14;;;;;;;17.23;13.27;;;16.80;77.80;;;-142.21;100.00;112049.66;5052183;28;20452;-79
2022/05/06 05:05:41;;;;;;;15.47;13.37;;;16.80;77.40;;;-142.21;100.00;112049.66;5052976;28;20523;-78
2022/05/06 05:08:09;;;;;;;16.80;13.30;;;16.90;77.40;;;-142.21;100.00;112049.66;5052620;28;20506;-80
2022/05/06 05:10:37;;;;;;;17.13;13.63;;;16.90;77.30;;;-142.21;100.00;112049.66;5053161;28;20452;-80
2022/05/06 05:13:05;;;;;;;15.93;13.27;;;16.90;77.60;;;-142.21;100.00;112049.66;5052566;28;20492;-80
2022/05/06 05:15:33;;;;;;;17.87;13.30;;;16.90;77.60;;;-142.21;100.00;112049.66;5017640;28;20443;-79
2022/05/06 05:18:00;;;;;;;16.23;13.40;;;16.90;77.50;;;-142.21;100.00;112049.66;5053237;28;20480;-77
2022/05/06 05:20:27;;;;;;;14.53;12.33;;;16.90;77.70;;;-142.21;100.00;112049.66;5052740;28;20524;-79
2022/05/06 05:22:54;;;;;;;13.93;12.40;;;16.90;78.10;;;-142.21;100.00;112049.66;5053013;28;20535;-78
2022/05/06 05:25:22;;;;;;;13.57;12.17;;;17.00;78.30;;;-142.21;100.00;112049.66;5052515;28;20480;-78
2022/05/06 05:27:51;;;;;;;16.23;13.33;;;17.00;78.10;;;-142.21;100.00;112049.66;5052920;28;20502;-80
2022/05/06 05:30:18;;;;;;;17.57;12.83;;;17.00;78.00;;;-142.21;100.00;112049.66;5050857;28;20479;-80
2022/05/06 05:32:45;;;;;;;16.97;13.17;;;17.00;77.70;;;-142.21;100.00;112049.66;5052780;28;20538;-79
2022/05/06 05:35:13;;;;;;;15.93;13.33;;;17.10;77.60;;;-142.21;100.00;112049.66;5052629;28;20448;-78
2022/05/06 05:37:40;;;;;;;16.40;13.27;;;17.10;78.30;;;-142.21;100.00;112049.66;5052401;28;20472;-79
2022/05/06 05:40:09;;;;;;;20.63;14.03;;;17.10;77.90;;;-142.21;100.00;112049.66;5052724;28;20448;-78
2022/05/06 05:42:36;;;;;;;18.27;14.60;;;17.10;77.60;;;-142.21;100.00;112049.66;5052986;28;20467;-79
2022/05/06 05:50:37;;;;;;;18.23;13.40;;;17.20;77.60;;;-142.21;100.00;112049.66;5051919;28;20822;-82
2022/05/06 05:53:05;;;;;;;15.70;13.57;;;17.20;77.50;;;-142.21;100.00;112049.66;5051595;28;20506;-82
2022/05/06 05:55:32;;;;;;;16.37;14.37;;;17.30;77.50;;;-142.21;100.00;112049.66;5049767;28;20440;-81
2022/05/06 05:58:00;;;;;;;17.40;14.43;;;17.30;77.40;;;-142.21;100.00;112049.66;5052688;28;20535;-81
2022/05/06 06:00:29;;;;;;;18.97;14.53;;;17.30;77.30;;;-142.21;100.00;112049.66;5051861;28;20444;-82
2022/05/06 06:02:56;;;;;;;17.63;14.23;;;17.30;76.90;;;-142.21;100.00;112049.66;5052341;28;20445;-81
2022/05/06 06:05:24;;;;;;;15.43;13.77;;;17.40;77.30;;;-142.21;100.00;112049.66;5051951;28;20904;-81
2022/05/06 06:07:51;;;;;;;18.00;14.20;;;17.40;77.20;;;-142.21;100.00;112049.66;5052004;28;20460;-80
2022/05/06 06:10:19;;;;;;;16.10;14.37;;;17.50;76.90;;;-142.21;100.00;112049.66;5051979;28;20480;-78
2022/05/06 06:12:48;;;;;;;16.43;13.77;;;17.50;77.60;;;-142.21;100.00;112049.66;5052021;28;20492;-79
2022/05/06 06:15:15;;;;;;;16.90;13.93;;;17.60;77.50;;;-142.21;100.00;112049.66;5051485;28;20445;-79
2022/05/06 06:17:44;;;;;;;18.03;14.47;;;17.60;77.10;;;-142.21;100.00;112049.66;5052144;28;20448;-80
2022/05/06 06:20:12;;;;;;;16.53;13.23;;;17.60;77.00;;;-142.21;100.00;112049.66;5052218;28;20480;-80
2022/05/06 06:22:40;;;;;;;19.60;14.77;;;17.70;77.00;;;-142.21;100.00;112049.66;5051911;28;20451;-79
2022/05/06 06:25:09;;;;;;;18.40;12.57;;;17.80;76.60;;;-142.21;100.00;112049.66;5051869;28;20448;-79
2022/05/06 06:27:36;;;;;;;15.03;12.50;;;17.80;75.90;;;-142.21;100.00;112049.66;5051038;28;20487;-77
2022/05/06 06:30:04;;;;;;;15.03;12.67;;;17.80;75.50;;;-142.21;100.00;112049.66;5052111;28;20460;-77
2022/05/06 06:32:32;;;;;;;17.47;12.13;;;17.70;75.50;;;-142.21;100.00;112049.66;5051401;28;20538;-76
2022/05/06 06:35:00;;;;;;;13.77;11.10;;;17.70;75.30;;;-142.21;100.00;112049.66;5051873;28;20448;-79
2022/05/06 06:37:32;;;;;;;13.53;10.40;;;17.70;74.90;;;-142.21;100.00;112049.66;5051462;28;20458;-76
2022/05/06 06:39:59;;;;;;;12.37;10.23;;;17.70;74.50;;;-142.21;100.00;112049.66;5052061;28;20812;-77
2022/05/06 06:42:26;;;;;;;11.27;10.07;;;17.80;74.60;;;-142.21;100.00;112049.66;5050932;28;20471;-80
2022/05/06 06:44:54;;;;;;;12.57;10.70;;;17.80;74.40;;;-142.21;100.00;112049.66;5052062;28;20487;-80
2022/05/06 06:47:21;;;;;;;11.27;10.07;;;17.80;74.80;;;-142.21;100.00;112049.66;5051464;28;21035;-80
2022/05/06 06:49:48;;;;;;;12.27;10.13;;;17.80;74.30;;;-142.21;100.00;112049.66;5051878;28;21025;-78
2022/05/06 06:52:17;;;;;;;11.47;10.27;;;17.80;74.60;;;-142.21;100.00;112049.66;5051441;28;20492;-77
2022/05/06 06:54:44;;;;;;;11.00;8.77;;;17.70;73.60;;;-142.21;100.00;112049.66;5051855;28;20994;-80
2022/05/06 06:57:11;;;;;;;12.40;9.37;;;17.70;74.30;;;-142.21;100.00;112049.66;5051759;28;20447;-78
2022/05/06 06:59:39;;;;;;;10.80;9.17;;;17.70;74.70;;;-142.21;100.00;112049.66;5051002;28;20517;-80
2022/05/06 07:02:07;;;;;;;13.93;9.87;;;17.70;74.70;;;-142.21;100.00;112049.66;5051541;28;20468;-78
2022/05/06 07:04:34;;;;;;;11.20;7.77;;;17.80;74.20;;;-142.21;100.00;112049.66;5047362;28;21017;-79
2022/05/06 07:12:32;;;;;;;11.73;7.33;;;18.00;73.70;;;-142.21;100.00;112049.66;5054764;28;20479;-78
2022/05/06 07:14:59;;;;;;;7.17;6.47;;;18.00;73.00;;;-142.21;100.00;112049.66;5055484;28;20443;-79
2022/05/06 07:17:26;;;;;;;8.80;6.40;;;18.10;73.20;;;-142.21;100.00;112049.66;5055115;28;20484;-79
2022/05/06 07:19:54;;;;;;;10.43;7.07;;;18.20;72.40;;;-142.21;100.00;112049.66;5055791;28;20509;-77
2022/05/06 07:22:21;;;;;;;8.03;7.07;;;18.30;72.50;;;-142.21;100.00;112049.66;5054018;28;20470;-77
2022/05/06 07:24:49;;;;;;;9.53;6.20;;;18.40;70.90;;;-142.21;100.00;112049.66;5055645;28;20839;-78
2022/05/06 07:27:18;;;;;;;9.30;6.43;;;18.40;70.90;;;-142.21;100.00;112049.66;5061666;28;20476;-80
2022/05/06 07:29:45;;;;;;;9.27;6.60;;;18.50;70.10;;;-142.21;100.00;112049.66;5055485;28;20475;-79
2022/05/06 07:32:12;;;;;;;7.33;6.27;;;18.50;70.50;;;-142.21;100.00;112049.66;5054411;28;20520;-80
2022/05/06 07:34:39;;;;;;;7.93;6.57;;;18.50;69.80;;;-142.21;100.00;112049.66;5054183;28;20799;-79
2022/05/06 07:37:07;;;;;;;8.27;7.13;;;18.60;70.20;;;-142.21;100.00;112049.66;5055352;28;20448;-79
2022/05/06 07:39:34;;;;;;;9.43;6.90;;;18.50;70.40;;;-142.21;100.00;112049.66;5054447;28;20937;-79
2022/05/06 07:42:03;;;;;;;8.47;7.10;;;18.50;69.70;;;-142.21;100.00;112049.66;5054739;28;20936;-79
2022/05/06 07:44:31;;;;;;;8.33;6.57;;;18.60;70.40;;;-142.21;100.00;112049.66;5054180;28;20475;-79
2022/05/06 07:46:58;;;;;;;7.33;6.10;;;18.60;70.00;;;-142.21;100.00;112049.66;5055024;28;20444;-78
2022/05/06 07:49:25;;;;;;;10.77;6.50;;;18.70;69.50;;;-142.21;100.00;112049.66;5054656;28;20452;-79
2022/05/06 07:51:52;;;;;;;8.37;6.97;;;18.70;69.10;;;-142.21;100.00;112049.66;5055279;28;20551;-80
2022/05/06 07:54:20;;;;;;;9.43;6.70;;;18.70;68.00;;;-142.21;100.00;112049.66;5054265;28;20880;-79
2022/05/06 07:56:47;;;;;;;7.77;6.77;;;18.70;68.70;;;-142.21;100.00;112049.66;5055057;28;20440;-79
2022/05/06 07:59:15;;;;;;;8.33;6.40;;;18.70;68.80;;;-142.21;100.00;112049.66;5055363;28;20555;-79
2022/05/06 08:04:34;;;;;;;8.27;6.47;;;18.50;66.30;;;-142.21;100.00;112049.66;5051421;28;20916;-77
2022/05/06 08:07:02;;;;;;;6.73;6.00;;;18.50;68.50;;;-142.21;100.00;112049.66;5055012;28;20523;-78
2022/05/06 08:09:29;;;;;;;8.33;6.00;;;18.40;67.80;;;-142.21;100.00;112049.66;5054211;28;20498;-81
2022/05/06 08:11:56;;;;;;;8.53;6.43;;;18.60;68.00;;;-142.21;100.00;112049.66;5054461;28;20537;-80
2022/05/06 08:14:27;;;;;;;7.40;6.23;;;18.70;67.10;;;-142.21;100.00;112049.66;5053925;28;20490;-79
2022/05/06 08:16:55;;;;;;;8.17;5.93;;;18.80;68.50;;;-142.21;100.00;112049.66;5053965;28;20433;-80
2022/05/06 08:19:22;;;;;;;9.87;6.13;;;18.90;68.40;;;-142.21;100.00;112049.66;5054103;28;20551;-80
2022/05/06 08:21:50;;;;;;;8.83;6.33;;;19.00;66.50;;;-142.21;100.00;112049.66;5054071;28;20447;-79
2022/05/06 08:24:17;;;;;;;7.40;6.07;;;18.90;66.70;;;-142.21;100.00;112049.66;5054237;28;20531;-78
2022/05/06 08:26:45;;;;;;;7.00;5.90;;;19.00;65.20;;;-142.21;100.00;112049.66;5054142;28;20452;-79
2022/05/06 08:29:13;;;;;;;7.57;5.70;;;19.00;63.50;;;-142.21;100.00;112049.66;5054594;28;20502;-78
2022/05/06 08:31:42;;;;;;;7.70;6.27;;;19.10;64.30;;;-142.21;100.00;112049.66;5053752;28;20868;-79
2022/05/06 08:34:12;;;;;;;9.33;5.90;;;19.20;64.90;;;-142.21;100.00;112049.66;5054155;28;20212;-78
2022/05/06 08:36:42;;;;;;;9.73;5.77;;;19.40;63.10;;;-142.21;100.00;112049.66;5053636;28;20534;-79
2022/05/06 08:39:11;;;;;;;8.13;5.90;;;19.40;62.30;;;-142.21;98.96;112049.66;5054062;28;20824;-78
2022/05/06 08:41:39;;;;;;;13.83;6.37;;;19.40;61.40;;;-142.21;100.00;112049.66;5053666;28;20436;-78
2022/05/06 08:52:33;;;;;;;7.20;5.50;;;20.00;61.50;;;-142.21;98.29;112049.66;5053368;28;20217;-80
2022/05/06 08:55:02;;;;;;;7.77;5.13;;;20.30;62.10;;;-142.21;94.41;112049.66;5053871;28;20281;-80
2022/05/06 08:57:32;;;;;;;6.10;5.10;;;20.60;60.80;;;-142.21;93.42;112049.66;5053459;28;20498;-79
2022/05/06 08:59:59;;;;;;;8.00;5.13;;;20.90;59.40;;;-142.21;89.23;112049.66;5053560;28;20983;-80
2022/05/06 09:02:28;;;;;;;5.27;4.73;;;21.00;58.20;;;-142.21;88.96;112049.66;5053211;28;20229;-80
2022/05/06 09:04:55;;;;;;;5.30;4.47;;;21.20;58.60;;;-142.21;90.30;112049.66;5053190;28;20306;-79
2022/05/06 09:07:25;;;;;;;6.20;4.83;;;21.40;58.50;;;-142.21;91.22;112049.66;5053243;28;20297;-79
2022/05/06 09:10:14;;;;;;;7.53;4.63;;;21.80;58.90;;;-142.21;82.93;112049.66;5053358;28;20209;-79
2022/05/06 09:12:44;;;;;;;4.60;3.93;;;22.10;55.00;;;-142.21;85.43;112049.66;5052852;28;20237;-79
2022/05/06 09:18:00;;;;;;;6.73;4.80;;;22.10;57.10;;;-142.21;84.85;112049.66;5053169;28;20196;-80
2022/05/06 09:20:29;;;;;;;8.10;4.77;;;21.90;56.60;;;-142.21;87.98;112049.66;5052662;28;20249;-80
2022/05/06 09:22:57;;;;;;;5.93;4.57;;;22.10;56.60;;;-142.21;88.21;112049.66;5033121;28;20249;-79
2022/05/06 09:25:45;;;;;;;6.33;4.03;;;22.20;57.50;;;-142.21;82.87;112049.66;5052084;28;20264;-78
2022/05/06 09:28:24;;;;;;;5.17;4.20;;;22.30;54.50;;;-142.21;78.84;112049.66;5052514;28;20233;-78
2022/05/06 09:31:03;;;;;;;5.70;3.63;;;22.20;54.20;;;-142.21;76.31;112049.66;5053371;28;20185;-78
2022/05/06 09:33:34;;;;;;;5.03;3.63;;;22.10;54.50;;;-142.21;82.26;112049.66;5052063;28;20271;-79
2022/05/06 09:36:23;;;;;;;5.10;3.70;;;22.10;55.10;;;-142.21;75.86;112049.66;5052806;28;20193;-79
2022/05/06 09:39:03;;;;;;;4.20;3.80;;;22.20;53.60;;;-142.21;77.04;112049.66;5053583;28;20558;-79
2022/05/06 09:41:30;;;;;;;4.23;3.43;;;22.20;54.40;;;-142.21;77.77;112049.66;5052869;28;20186;-79
2022/05/06 09:44:00;;;;;;;5.73;3.43;;;22.20;54.00;;;-142.21;81.52;112049.66;5051955;28;20199;-78
2022/05/06 09:46:28;;;;;;;4.47;3.33;;;22.40;55.20;;;-142.21;82.32;112049.66;5052594;28;20217;-76
2022/05/06 09:48:58;;;;;;;5.33;3.50;;;22.70;56.40;;;-142.21;73.00;112049.66;5052913;28;20209;-78
2022/05/06 09:51:29;;;;;;;4.27;3.47;;;22.80;53.40;;;-142.21;74.49;112049.66;5052144;28;20670;-78
2022/05/06 09:53:57;;;;;;;4.43;3.60;;;22.90;53.20;;;-142.21;74.16;112049.66;5052494;28;20305;-78
2022/05/06 09:56:25;;;;;;;4.40;2.87;;;22.80;53.70;;;-142.21;71.27;112049.66;5052479;28;20288;-75
2022/05/06 09:58:53;;;;;;;7.40;3.43;;;22.90;53.50;;;-142.21;76.88;112049.66;5052542;28;20202;-80
2022/05/06 10:01:21;;;;;;;5.43;2.90;;;23.00;54.30;;;-142.21;70.70;112049.66;5052346;28;20296;-79
2022/05/06 10:03:50;;;;;;;2.93;2.63;;;23.20;53.60;;;-142.21;63.20;112049.66;5052001;28;20564;-75
2022/05/06 10:06:24;;;;;;;3.70;2.97;;;23.20;51.70;;;-142.21;63.38;112049.66;5052366;28;20304;-79
2022/05/06 10:08:58;;;;;;;3.77;2.47;;;23.20;52.00;;;-142.21;64.55;112049.66;5052731;28;20248;-75
2022/05/06 10:11:29;;;;;;;4.63;2.97;;;23.30;51.80;;;-142.21;65.75;112049.66;5052067;28;20271;-80
2022/05/06 10:13:58;;;;;;;2.93;2.60;;;23.40;51.80;;;-142.21;62.53;112049.66;5051799;28;20225;-78
2022/05/06 10:16:35;;;;;;;4.07;2.13;;;23.50;51.80;;;-142.21;63.86;112049.66;5052412;28;20208;-80
2022/05/06 10:19:03;;;;;;;2.60;2.40;;;23.50;51.10;;;-142.21;58.39;112049.66;5052526;28;20186;-79
2022/05/06 10:21:50;;;;;;;2.80;1.87;;;23.40;50.00;;;-142.21;54.40;112049.66;5051241;28;20202;-77
2022/05/06 10:24:20;;;;;;;2.43;2.10;;;23.40;49.00;;;-142.21;53.98;112049.66;5051409;28;20662;-80